createdAt,value
2018-09-24T00:01:53.245Z,81.70
2018-09-24T00:06:56.224Z,82.50
2018-09-24T00:11:59.877Z,83.10
2018-09-24T00:17:04.905Z,82.40
2018-09-24T00:22:07.932Z,83.40
2018-09-24T00:27:10.952Z,83.30
2018-09-24T00:32:13.919Z,83.60
2018-09-24T00:37:16.891Z,83.70
2018-09-24T00:42:19.904Z,82.40
2018-09-24T00:47:22.920Z,81.90
2018-09-24T00:52:25.946Z,82.40
2018-09-24T00:57:28.939Z,82.20
2018-09-24T01:02:31.911Z,81.60
2018-09-24T01:07:34.915Z,80.80
2018-09-24T01:12:37.934Z,79.90
2018-09-24T01:17:40.987Z,81.00
2018-09-24T01:22:44.038Z,82.20
2018-09-24T01:27:47.043Z,83.40
2018-09-24T01:32:50.159Z,83.80
2018-09-24T01:37:53.236Z,83.90
2018-09-24T01:42:56.254Z,83.30
2018-09-24T01:47:59.274Z,83.80
2018-09-24T01:53:05.192Z,83.50
2018-09-24T01:58:08.364Z,83.60
2018-09-24T02:03:11.345Z,82.70
2018-09-24T02:08:14.734Z,82.90
2018-09-24T02:13:17.728Z,82.50
2018-09-24T02:18:20.719Z,82.80
2018-09-24T02:23:23.687Z,81.90
2018-09-24T02:28:28.721Z,80.90
2018-09-24T02:33:31.691Z,80.00
2018-09-24T02:38:40.651Z,79.40
2018-09-24T02:43:43.790Z,79.60
2018-09-24T02:48:46.777Z,78.90
2018-09-24T02:53:49.774Z,77.70
2018-09-24T02:58:52.791Z,78.30
2018-09-24T03:03:55.759Z,79.20
2018-09-24T03:08:58.749Z,80.20
2018-09-24T03:14:04.524Z,81.00
2018-09-24T03:19:07.518Z,81.50
2018-09-24T03:24:10.504Z,82.70
2018-09-24T03:29:21.226Z,83.50
2018-09-24T03:34:24.282Z,84.40
2018-09-24T03:39:27.322Z,84.30
2018-09-24T03:44:30.364Z,85.20
2018-09-24T03:49:33.303Z,85.60
2018-09-24T03:54:36.309Z,85.40
2018-09-24T03:59:39.284Z,84.60
2018-09-24T04:04:48.040Z,84.90
2018-09-24T04:09:57.042Z,85.40
2018-09-24T04:15:05.541Z,85.20
2018-09-24T04:20:14.239Z,85.50
2018-09-24T04:25:22.959Z,85.90
2018-09-24T04:30:31.749Z,85.80
2018-09-24T04:35:40.500Z,85.50
2018-09-24T04:40:49.091Z,85.60
2018-09-24T04:45:57.791Z,85.40
2018-09-24T04:51:06.563Z,85.40
2018-09-24T04:56:15.275Z,85.60
2018-09-24T05:01:24.654Z,86.20
2018-09-24T05:06:33.207Z,86.60
2018-09-24T05:11:42.036Z,86.20
2018-09-24T05:16:50.644Z,86.20
2018-09-24T05:21:59.752Z,86.00
2018-09-24T05:27:09.482Z,85.90
2018-09-24T05:32:18.082Z,86.00
2018-09-24T05:37:26.611Z,85.00
2018-09-24T05:42:36.454Z,84.10
2018-09-24T05:47:45.371Z,83.80
2018-09-24T05:52:53.992Z,83.90
2018-09-24T05:58:02.656Z,83.10
2018-09-24T06:03:11.391Z,81.60
2018-09-24T06:08:20.283Z,76.30
2018-09-24T06:13:28.955Z,71.90
2018-09-24T06:18:37.883Z,68.60
2018-09-24T06:23:46.549Z,66.60
2018-09-24T06:28:55.205Z,64.70
2018-09-24T06:34:03.959Z,62.40
2018-09-24T06:39:13.844Z,60.60
2018-09-24T06:44:22.526Z,60.10
2018-09-24T06:49:31.448Z,60.00
2018-09-24T06:54:40.063Z,59.00
2018-09-24T06:59:48.770Z,59.70
2018-09-24T07:04:57.309Z,59.20
2018-09-24T07:10:06.071Z,57.70
2018-09-24T07:15:14.811Z,57.60
2018-09-24T07:20:23.468Z,57.70
2018-09-24T07:25:32.326Z,56.10
2018-09-24T07:30:40.852Z,55.80
2018-09-24T07:35:49.504Z,55.80
2018-09-24T07:40:58.126Z,55.00
2018-09-24T07:46:09.424Z,53.70
2018-09-24T07:51:18.075Z,56.00
2018-09-24T07:56:26.660Z,54.60
2018-09-24T08:01:35.191Z,56.60
2018-09-24T08:06:43.992Z,58.70
2018-09-24T08:11:52.656Z,55.90
2018-09-24T08:17:03.616Z,55.90
2018-09-24T08:22:12.308Z,55.00
2018-09-24T08:27:21.015Z,54.90
2018-09-24T08:32:29.703Z,55.90
2018-09-24T08:37:38.356Z,56.00
2018-09-24T08:42:46.976Z,55.20
2018-09-24T08:47:55.732Z,53.30
2018-09-24T08:53:04.382Z,56.50
2018-09-24T08:58:12.958Z,56.00
2018-09-24T09:03:21.769Z,55.10
2018-09-24T09:08:30.427Z,55.70
2018-09-24T09:13:39.289Z,53.80
2018-09-24T09:18:48.061Z,53.10
2018-09-24T09:23:57.044Z,56.70
2018-09-24T09:29:05.824Z,54.80
2018-09-24T09:34:14.535Z,52.40
2018-09-24T09:39:23.352Z,56.30
2018-09-24T09:44:32.032Z,56.40
2018-09-24T09:49:40.902Z,58.00
2018-09-24T09:54:49.631Z,55.70
2018-09-24T09:59:58.519Z,57.90
2018-09-24T10:05:08.470Z,55.10
2018-09-24T10:10:17.148Z,54.00
2018-09-24T10:15:25.904Z,51.60
2018-09-24T10:20:34.766Z,52.00
2018-09-24T10:25:43.580Z,53.90
2018-09-24T10:30:52.282Z,55.50
2018-09-24T10:36:01.156Z,52.20
2018-09-24T10:41:09.837Z,50.90
2018-09-24T10:46:18.525Z,48.40
2018-09-24T10:51:27.073Z,46.10
2018-09-24T10:56:35.950Z,50.60
2018-09-24T11:01:44.860Z,48.20
2018-09-24T11:06:53.491Z,51.70
2018-09-24T11:12:02.100Z,48.80
2018-09-24T11:17:11.183Z,49.00
2018-09-24T11:22:19.638Z,50.10
2018-09-24T11:27:28.368Z,49.50
2018-09-24T11:32:36.914Z,49.30
2018-09-24T11:37:45.761Z,49.70
2018-09-24T11:42:54.417Z,48.40
2018-09-24T11:48:03.108Z,48.30
2018-09-24T11:53:11.708Z,47.40
2018-09-24T11:58:20.256Z,45.30
2018-09-24T12:03:29.300Z,44.00
2018-09-24T12:08:38.216Z,47.20
2018-09-24T12:13:46.910Z,42.10
2018-09-24T12:18:55.601Z,41.80
2018-09-24T12:24:04.378Z,42.60
2018-09-24T12:29:13.099Z,42.10
2018-09-24T12:34:21.696Z,43.40
2018-09-24T12:39:30.404Z,46.10
2018-09-24T12:44:39.387Z,42.80
2018-09-24T12:49:48.149Z,42.40
2018-09-24T12:54:56.784Z,43.20
2018-09-24T13:00:05.544Z,42.10
2018-09-24T13:05:14.248Z,43.00
2018-09-24T13:10:22.920Z,41.60
2018-09-24T13:15:31.736Z,43.90
2018-09-24T13:20:40.521Z,44.30
2018-09-24T13:25:49.383Z,44.80
2018-09-24T13:30:58.023Z,43.70
2018-09-24T13:36:07.749Z,44.90
2018-09-24T13:41:16.495Z,45.00
2018-09-24T13:46:25.237Z,45.20
2018-09-24T13:51:33.856Z,44.70
2018-09-24T13:56:42.623Z,46.20
2018-09-24T14:01:51.303Z,45.60
2018-09-24T14:07:00.000Z,44.90
2018-09-24T14:12:10.954Z,44.90
2018-09-24T14:17:19.570Z,45.50
2018-09-24T14:22:28.365Z,44.10
2018-09-24T14:27:36.960Z,44.10
2018-09-24T14:32:45.486Z,43.30
2018-09-24T14:37:54.212Z,42.70
2018-09-24T14:43:03.152Z,43.70
2018-09-24T14:48:12.049Z,46.40
2018-09-24T14:53:21.685Z,64.40
2018-09-24T14:58:30.312Z,69.50
2018-09-24T15:03:39.059Z,70.30
2018-09-24T15:08:48.104Z,71.80
2018-09-24T15:13:56.801Z,71.90
2018-09-24T15:19:05.599Z,66.90
2018-09-24T15:24:14.124Z,69.00
2018-09-24T15:29:22.608Z,67.60
2018-09-24T15:34:31.275Z,66.90
2018-09-24T15:39:39.931Z,66.20
2018-09-24T15:44:48.727Z,66.90
2018-09-24T15:49:57.302Z,62.70
2018-09-24T15:55:05.892Z,62.00
2018-09-24T16:00:14.589Z,61.30
2018-09-24T16:05:23.336Z,61.30
2018-09-24T16:10:31.883Z,59.80
2018-09-24T16:15:40.694Z,59.60
2018-09-24T16:20:49.593Z,60.90
2018-09-24T16:25:58.136Z,58.10
2018-09-24T16:31:09.185Z,57.90
2018-09-24T16:36:17.693Z,57.60
2018-09-24T16:41:26.321Z,56.90
2018-09-24T16:46:34.956Z,56.10
2018-09-24T16:51:43.726Z,55.90
2018-09-24T16:56:52.465Z,56.50
2018-09-24T17:02:03.688Z,56.90
2018-09-24T17:07:12.414Z,57.10
2018-09-24T17:12:21.372Z,58.40
2018-09-24T17:17:30.285Z,58.50
2018-09-24T17:22:39.058Z,59.50
2018-09-24T17:27:47.882Z,60.30
2018-09-24T17:32:56.593Z,61.20
2018-09-24T17:38:05.172Z,61.10
2018-09-24T17:43:13.883Z,62.00
2018-09-24T17:48:22.769Z,62.20
2018-09-24T17:53:31.540Z,63.30
2018-09-24T17:58:40.349Z,64.10
2018-09-24T18:03:56.107Z,65.20
2018-09-24T18:09:05.016Z,66.00
2018-09-24T18:14:14.203Z,66.50
2018-09-24T18:19:22.941Z,67.60
2018-09-24T18:24:31.777Z,68.10
2018-09-24T18:29:40.579Z,69.30
2018-09-24T18:34:49.357Z,70.10
2018-09-24T18:39:58.054Z,70.50
2018-09-24T18:45:08.995Z,71.00
2018-09-24T18:50:17.876Z,71.20
2018-09-24T18:55:27.082Z,71.60
2018-09-24T19:00:35.790Z,71.80
2018-09-24T19:05:44.777Z,72.00
2018-09-24T19:10:53.424Z,71.80
2018-09-24T19:16:02.236Z,72.10
2018-09-24T19:21:11.246Z,72.80
2018-09-24T19:26:19.943Z,73.40
2018-09-24T19:31:28.836Z,73.20
2018-09-24T19:36:37.548Z,73.60
2018-09-24T19:41:46.876Z,74.90
2018-09-24T19:46:55.715Z,75.40
2018-09-24T19:52:04.593Z,74.30
2018-09-24T19:57:13.398Z,74.90
2018-09-24T20:02:22.347Z,75.60
2018-09-24T20:07:31.062Z,76.80
2018-09-24T20:12:39.831Z,77.10
2018-09-24T20:17:49.739Z,74.80
2018-09-24T20:22:58.508Z,75.30
2018-09-24T20:28:09.501Z,75.80
2018-09-24T20:33:18.112Z,77.80
2018-09-24T20:38:26.812Z,78.30
2018-09-24T20:43:35.487Z,78.40
2018-09-24T20:48:44.155Z,79.10
2018-09-24T20:53:52.887Z,79.80
2018-09-24T20:59:02.038Z,80.00
2018-09-24T21:04:11.075Z,79.80
2018-09-24T21:09:19.903Z,80.40
2018-09-24T21:14:28.789Z,81.30
2018-09-24T21:19:37.375Z,82.00
2018-09-24T21:24:46.052Z,81.40
2018-09-24T21:29:54.665Z,83.10
2018-09-24T21:35:03.464Z,85.10
2018-09-24T21:40:12.411Z,85.80
2018-09-24T21:45:21.140Z,85.60
2018-09-24T21:50:29.956Z,86.50
2018-09-24T21:55:38.561Z,86.10
2018-09-24T22:00:47.562Z,84.40
2018-09-24T22:05:56.578Z,86.70
2018-09-24T22:11:05.266Z,87.20
2018-09-24T22:16:14.116Z,86.60
2018-09-24T22:21:22.753Z,86.70
2018-09-24T22:26:31.512Z,85.60
2018-09-24T22:31:40.276Z,83.90
2018-09-24T22:36:48.855Z,81.10
2018-09-24T22:41:57.756Z,79.80
2018-09-24T22:47:06.450Z,79.30
2018-09-24T22:52:15.132Z,79.40
2018-09-24T22:57:23.771Z,79.00
2018-09-24T23:02:32.407Z,79.00
2018-09-24T23:07:41.002Z,79.70
2018-09-24T23:12:49.749Z,79.30
2018-09-24T23:17:58.948Z,78.90
2018-09-24T23:23:08.375Z,79.60
2018-09-24T23:28:17.196Z,81.10
2018-09-24T23:33:25.827Z,79.90
2018-09-24T23:38:34.398Z,79.40
2018-09-24T23:43:43.099Z,79.40
2018-09-24T23:48:51.751Z,84.30
2018-09-24T23:54:03.078Z,86.40
2018-09-24T23:59:11.848Z,85.80
